Weather at Lommis Airfield

Public forecast

Using degrees Celsius for public forecast. Weather courtesy of forecast.io.

Closest aviation weather report (METAR) to Lommis Airfield

Closest report is Dübendorf Air Base, 16.3 nm (30.1 km) WSW. Retrieved 2021/05/09 01:20 UTC (40 minutes ago):

LSMD 090120Z AUTO 00000KT 9999NDV NCD 09/06 Q1013 RMK

Closest aviation forecast (TAF) to Lommis Airfield

Forecast is more than 6 hours old.

Closest forecast is Dübendorf Air Base, 16.3 nm (30.1 km) WSW. Retrieved 2021/05/08 17:00 UTC (9 hours ago):

TAF LSMD 081625Z 0817/0923 18004KT CAVOK PROB30 0912/0923 16015G25KT BECMG 0920/0923 9999 SCT080